sensor_id;sensor_type;location;lat;lon;timestamp;temperature;humidity
53962;DHT22;39868;53.398;6.564;2023-06-05T00:00:18;15.40;69.90
53962;DHT22;39868;53.398;6.564;2023-06-05T00:02:46;15.40;69.80
53962;DHT22;39868;53.398;6.564;2023-06-05T00:05:14;15.40;69.80
53962;DHT22;39868;53.398;6.564;2023-06-05T00:07:42;15.40;69.70
53962;DHT22;39868;53.398;6.564;2023-06-05T00:10:10;15.40;69.80
53962;DHT22;39868;53.398;6.564;2023-06-05T00:12:37;15.40;69.80
53962;DHT22;39868;53.398;6.564;2023-06-05T00:15:05;15.40;70.00
53962;DHT22;39868;53.398;6.564;2023-06-05T00:17:33;15.40;69.90
53962;DHT22;39868;53.398;6.564;2023-06-05T00:20:00;15.40;70.00
53962;DHT22;39868;53.398;6.564;2023-06-05T00:22:28;15.40;70.10
53962;DHT22;39868;53.398;6.564;2023-06-05T00:24:56;15.40;70.10
53962;DHT22;39868;53.398;6.564;2023-06-05T00:27:23;15.40;70.00
53962;DHT22;39868;53.398;6.564;2023-06-05T00:29:51;15.40;70.10
53962;DHT22;39868;53.398;6.564;2023-06-05T00:32:19;15.40;70.60
53962;DHT22;39868;53.398;6.564;2023-06-05T00:34:48;15.40;70.20
53962;DHT22;39868;53.398;6.564;2023-06-05T00:37:17;15.40;70.30
53962;DHT22;39868;53.398;6.564;2023-06-05T00:39:45;15.40;70.30
53962;DHT22;39868;53.398;6.564;2023-06-05T00:42:13;15.40;70.30
53962;DHT22;39868;53.398;6.564;2023-06-05T00:44:40;15.40;70.20
53962;DHT22;39868;53.398;6.564;2023-06-05T00:47:07;15.40;70.10
53962;DHT22;39868;53.398;6.564;2023-06-05T00:49:35;15.40;70.10
53962;DHT22;39868;53.398;6.564;2023-06-05T00:52:02;15.40;70.00
53962;DHT22;39868;53.398;6.564;2023-06-05T00:54:31;15.40;70.10
53962;DHT22;39868;53.398;6.564;2023-06-05T00:56:59;15.40;70.30
53962;DHT22;39868;53.398;6.564;2023-06-05T00:59:29;15.30;70.20
53962;DHT22;39868;53.398;6.564;2023-06-05T01:01:59;15.30;70.60
53962;DHT22;39868;53.398;6.564;2023-06-05T01:04:28;15.30;70.10
53962;DHT22;39868;53.398;6.564;2023-06-05T01:06:56;15.40;70.10
53962;DHT22;39868;53.398;6.564;2023-06-05T01:09:29;15.40;70.10
53962;DHT22;39868;53.398;6.564;2023-06-05T01:12:20;15.40;70.00
53962;DHT22;39868;53.398;6.564;2023-06-05T01:14:49;15.40;70.00
53962;DHT22;39868;53.398;6.564;2023-06-05T01:17:17;15.30;70.00
53962;DHT22;39868;53.398;6.564;2023-06-05T01:19:48;15.30;70.00
53962;DHT22;39868;53.398;6.564;2023-06-05T01:22:17;15.30;70.10
53962;DHT22;39868;53.398;6.564;2023-06-05T01:24:44;15.30;70.20
53962;DHT22;39868;53.398;6.564;2023-06-05T01:27:22;15.30;70.30
53962;DHT22;39868;53.398;6.564;2023-06-05T01:30:12;15.30;70.50
53962;DHT22;39868;53.398;6.564;2023-06-05T01:32:53;15.40;70.40
53962;DHT22;39868;53.398;6.564;2023-06-05T01:35:23;15.40;70.40
53962;DHT22;39868;53.398;6.564;2023-06-05T01:37:58;15.30;70.40
53962;DHT22;39868;53.398;6.564;2023-06-05T01:40:27;15.40;70.60
53962;DHT22;39868;53.398;6.564;2023-06-05T01:42:55;15.40;70.50
53962;DHT22;39868;53.398;6.564;2023-06-05T01:45:23;15.40;70.60
53962;DHT22;39868;53.398;6.564;2023-06-05T01:47:51;15.40;70.50
53962;DHT22;39868;53.398;6.564;2023-06-05T01:50:19;15.40;70.60
53962;DHT22;39868;53.398;6.564;2023-06-05T01:52:47;15.40;70.50
53962;DHT22;39868;53.398;6.564;2023-06-05T01:55:17;15.40;70.60
53962;DHT22;39868;53.398;6.564;2023-06-05T01:57:47;15.40;70.60
53962;DHT22;39868;53.398;6.564;2023-06-05T02:00:15;15.40;70.60
53962;DHT22;39868;53.398;6.564;2023-06-05T02:02:46;15.40;70.60
53962;DHT22;39868;53.398;6.564;2023-06-05T02:05:16;15.40;70.60
53962;DHT22;39868;53.398;6.564;2023-06-05T02:07:49;15.40;70.60
53962;DHT22;39868;53.398;6.564;2023-06-05T02:10:21;15.40;70.70
53962;DHT22;39868;53.398;6.564;2023-06-05T02:12:48;15.40;70.70
53962;DHT22;39868;53.398;6.564;2023-06-05T02:15:16;15.40;70.70
53962;DHT22;39868;53.398;6.564;2023-06-05T02:17:44;15.40;70.70
53962;DHT22;39868;53.398;6.564;2023-06-05T02:20:17;15.50;70.60
53962;DHT22;39868;53.398;6.564;2023-06-05T02:22:45;15.50;70.60
53962;DHT22;39868;53.398;6.564;2023-06-05T02:25:12;15.50;70.60
53962;DHT22;39868;53.398;6.564;2023-06-05T02:27:39;15.40;70.50
53962;DHT22;39868;53.398;6.564;2023-06-05T02:30:09;15.50;70.40
53962;DHT22;39868;53.398;6.564;2023-06-05T02:32:37;15.40;70.30
53962;DHT22;39868;53.398;6.564;2023-06-05T02:35:09;15.40;70.30
53962;DHT22;39868;53.398;6.564;2023-06-05T02:37:38;15.40;70.30
53962;DHT22;39868;53.398;6.564;2023-06-05T02:40:12;15.40;70.20
53962;DHT22;39868;53.398;6.564;2023-06-05T02:42:40;15.40;70.20
53962;DHT22;39868;53.398;6.564;2023-06-05T02:45:08;15.40;70.30
53962;DHT22;39868;53.398;6.564;2023-06-05T02:47:37;15.40;70.30
53962;DHT22;39868;53.398;6.564;2023-06-05T02:50:06;15.30;70.10
53962;DHT22;39868;53.398;6.564;2023-06-05T02:52:37;15.40;70.20
53962;DHT22;39868;53.398;6.564;2023-06-05T02:55:19;15.30;70.10
53962;DHT22;39868;53.398;6.564;2023-06-05T02:57:47;15.30;70.20
53962;DHT22;39868;53.398;6.564;2023-06-05T03:00:21;15.30;70.20
53962;DHT22;39868;53.398;6.564;2023-06-05T03:02:52;15.30;70.20
53962;DHT22;39868;53.398;6.564;2023-06-05T03:05:24;15.30;70.30
53962;DHT22;39868;53.398;6.564;2023-06-05T03:07:57;15.30;70.40
53962;DHT22;39868;53.398;6.564;2023-06-05T03:10:25;15.30;70.60
53962;DHT22;39868;53.398;6.564;2023-06-05T03:12:54;15.30;70.60
53962;DHT22;39868;53.398;6.564;2023-06-05T03:15:23;15.30;70.60
53962;DHT22;39868;53.398;6.564;2023-06-05T03:17:51;15.30;70.50
53962;DHT22;39868;53.398;6.564;2023-06-05T03:20:21;15.30;70.40
53962;DHT22;39868;53.398;6.564;2023-06-05T03:22:52;15.30;70.30
53962;DHT22;39868;53.398;6.564;2023-06-05T03:25:21;15.30;70.40
53962;DHT22;39868;53.398;6.564;2023-06-05T03:27:52;15.30;70.20
53962;DHT22;39868;53.398;6.564;2023-06-05T03:30:21;15.30;70.20
53962;DHT22;39868;53.398;6.564;2023-06-05T03:32:52;15.30;70.20
53962;DHT22;39868;53.398;6.564;2023-06-05T03:35:20;15.30;70.10
53962;DHT22;39868;53.398;6.564;2023-06-05T03:37:48;15.30;70.20
53962;DHT22;39868;53.398;6.564;2023-06-05T03:40:15;15.20;70.20
53962;DHT22;39868;53.398;6.564;2023-06-05T03:42:43;15.20;70.20
53962;DHT22;39868;53.398;6.564;2023-06-05T03:45:12;15.20;70.20
53962;DHT22;39868;53.398;6.564;2023-06-05T03:47:41;15.20;70.30
53962;DHT22;39868;53.398;6.564;2023-06-05T03:50:11;15.20;70.30
53962;DHT22;39868;53.398;6.564;2023-06-05T03:52:43;15.20;70.40
53962;DHT22;39868;53.398;6.564;2023-06-05T03:55:10;15.20;70.40
53962;DHT22;39868;53.398;6.564;2023-06-05T03:57:38;15.20;70.40
53962;DHT22;39868;53.398;6.564;2023-06-05T04:00:08;15.20;70.50
53962;DHT22;39868;53.398;6.564;2023-06-05T04:02:55;15.20;70.60
53962;DHT22;39868;53.398;6.564;2023-06-05T04:05:24;15.20;70.60
53962;DHT22;39868;53.398;6.564;2023-06-05T04:07:52;15.20;70.60
53962;DHT22;39868;53.398;6.564;2023-06-05T04:10:19;15.20;70.60
53962;DHT22;39868;53.398;6.564;2023-06-05T04:12:47;15.20;70.60
53962;DHT22;39868;53.398;6.564;2023-06-05T04:15:15;15.20;70.60
53962;DHT22;39868;53.398;6.564;2023-06-05T04:17:42;15.20;70.60
53962;DHT22;39868;53.398;6.564;2023-06-05T04:20:10;15.20;70.60
53962;DHT22;39868;53.398;6.564;2023-06-05T04:22:43;15.20;70.70
53962;DHT22;39868;53.398;6.564;2023-06-05T04:25:11;15.20;70.80
53962;DHT22;39868;53.398;6.564;2023-06-05T04:27:45;15.20;70.70
53962;DHT22;39868;53.398;6.564;2023-06-05T04:30:13;15.20;70.70
53962;DHT22;39868;53.398;6.564;2023-06-05T04:32:41;15.20;70.60
53962;DHT22;39868;53.398;6.564;2023-06-05T04:35:11;15.20;70.60
53962;DHT22;39868;53.398;6.564;2023-06-05T04:37:39;15.30;70.70
53962;DHT22;39868;53.398;6.564;2023-06-05T04:40:08;15.20;70.50
53962;DHT22;39868;53.398;6.564;2023-06-05T04:42:39;15.30;70.80
53962;DHT22;39868;53.398;6.564;2023-06-05T04:45:08;15.30;70.80
53962;DHT22;39868;53.398;6.564;2023-06-05T04:47:39;15.30;70.90
53962;DHT22;39868;53.398;6.564;2023-06-05T04:50:07;15.30;70.80
53962;DHT22;39868;53.398;6.564;2023-06-05T04:52:38;15.30;70.80
53962;DHT22;39868;53.398;6.564;2023-06-05T04:55:08;15.30;70.80
53962;DHT22;39868;53.398;6.564;2023-06-05T04:57:36;15.30;70.70
53962;DHT22;39868;53.398;6.564;2023-06-05T05:00:05;15.30;70.60
53962;DHT22;39868;53.398;6.564;2023-06-05T05:02:35;15.40;70.70
53962;DHT22;39868;53.398;6.564;2023-06-05T05:05:04;15.40;70.80
53962;DHT22;39868;53.398;6.564;2023-06-05T05:07:34;15.40;70.80
53962;DHT22;39868;53.398;6.564;2023-06-05T05:10:03;15.40;70.80
53962;DHT22;39868;53.398;6.564;2023-06-05T05:12:31;15.40;70.80
53962;DHT22;39868;53.398;6.564;2023-06-05T05:14:59;15.50;70.80
53962;DHT22;39868;53.398;6.564;2023-06-05T05:17:26;15.50;70.90
53962;DHT22;39868;53.398;6.564;2023-06-05T05:19:53;15.50;71.00
53962;DHT22;39868;53.398;6.564;2023-06-05T05:22:24;15.50;70.90
53962;DHT22;39868;53.398;6.564;2023-06-05T05:24:51;15.50;70.90
53962;DHT22;39868;53.398;6.564;2023-06-05T05:27:18;15.60;70.90
53962;DHT22;39868;53.398;6.564;2023-06-05T05:29:46;15.60;70.70
53962;DHT22;39868;53.398;6.564;2023-06-05T05:32:13;15.60;70.60
53962;DHT22;39868;53.398;6.564;2023-06-05T05:34:41;15.60;70.60
53962;DHT22;39868;53.398;6.564;2023-06-05T05:37:09;15.60;70.50
53962;DHT22;39868;53.398;6.564;2023-06-05T05:39:36;15.70;70.40
53962;DHT22;39868;53.398;6.564;2023-06-05T05:42:04;15.70;70.40
53962;DHT22;39868;53.398;6.564;2023-06-05T05:44:31;15.70;70.40
53962;DHT22;39868;53.398;6.564;2023-06-05T05:46:59;15.70;70.50
53962;DHT22;39868;53.398;6.564;2023-06-05T05:49:26;15.70;70.50
53962;DHT22;39868;53.398;6.564;2023-06-05T05:51:54;15.80;70.50
53962;DHT22;39868;53.398;6.564;2023-06-05T05:54:21;15.80;70.50
53962;DHT22;39868;53.398;6.564;2023-06-05T05:56:54;15.80;70.50
53962;DHT22;39868;53.398;6.564;2023-06-05T05:59:22;15.80;70.40
53962;DHT22;39868;53.398;6.564;2023-06-05T06:01:50;15.80;70.50
53962;DHT22;39868;53.398;6.564;2023-06-05T06:04:17;15.80;70.30
53962;DHT22;39868;53.398;6.564;2023-06-05T06:06:45;15.90;70.30
53962;DHT22;39868;53.398;6.564;2023-06-05T06:09:19;15.90;70.20
53962;DHT22;39868;53.398;6.564;2023-06-05T06:11:46;15.90;70.10
53962;DHT22;39868;53.398;6.564;2023-06-05T06:14:14;15.90;70.20
53962;DHT22;39868;53.398;6.564;2023-06-05T06:16:41;15.90;70.20
53962;DHT22;39868;53.398;6.564;2023-06-05T06:19:10;16.00;70.10
53962;DHT22;39868;53.398;6.564;2023-06-05T06:21:41;16.00;70.10
53962;DHT22;39868;53.398;6.564;2023-06-05T06:24:09;16.00;70.00
53962;DHT22;39868;53.398;6.564;2023-06-05T06:26:36;16.10;70.00
53962;DHT22;39868;53.398;6.564;2023-06-05T06:29:06;16.10;70.10
53962;DHT22;39868;53.398;6.564;2023-06-05T06:31:33;16.10;70.20
53962;DHT22;39868;53.398;6.564;2023-06-05T06:34:01;16.10;70.20
53962;DHT22;39868;53.398;6.564;2023-06-05T06:36:28;16.20;70.10
53962;DHT22;39868;53.398;6.564;2023-06-05T06:38:55;16.20;70.10
53962;DHT22;39868;53.398;6.564;2023-06-05T06:41:23;16.20;70.10
53962;DHT22;39868;53.398;6.564;2023-06-05T06:43:50;16.20;70.10
53962;DHT22;39868;53.398;6.564;2023-06-05T06:46:18;16.30;70.10
53962;DHT22;39868;53.398;6.564;2023-06-05T06:48:45;16.30;70.10
53962;DHT22;39868;53.398;6.564;2023-06-05T06:51:13;16.30;70.00
53962;DHT22;39868;53.398;6.564;2023-06-05T06:53:40;16.40;69.90
53962;DHT22;39868;53.398;6.564;2023-06-05T06:56:08;16.40;69.80
53962;DHT22;39868;53.398;6.564;2023-06-05T06:58:36;16.40;70.00
53962;DHT22;39868;53.398;6.564;2023-06-05T07:01:04;16.50;70.00
53962;DHT22;39868;53.398;6.564;2023-06-05T07:03:31;16.50;70.00
53962;DHT22;39868;53.398;6.564;2023-06-05T07:05:59;16.50;70.20
53962;DHT22;39868;53.398;6.564;2023-06-05T07:08:26;16.50;69.90
53962;DHT22;39868;53.398;6.564;2023-06-05T07:10:54;16.60;70.00
53962;DHT22;39868;53.398;6.564;2023-06-05T07:13:23;16.60;69.90
53962;DHT22;39868;53.398;6.564;2023-06-05T07:15:51;16.60;69.80
53962;DHT22;39868;53.398;6.564;2023-06-05T07:18:18;16.70;69.70
53962;DHT22;39868;53.398;6.564;2023-06-05T07:20:46;16.70;69.80
53962;DHT22;39868;53.398;6.564;2023-06-05T07:23:17;16.70;69.70
53962;DHT22;39868;53.398;6.564;2023-06-05T07:25:47;16.80;69.80
53962;DHT22;39868;53.398;6.564;2023-06-05T07:28:15;16.80;69.60
53962;DHT22;39868;53.398;6.564;2023-06-05T07:30:43;16.90;69.80
53962;DHT22;39868;53.398;6.564;2023-06-05T07:33:10;16.90;69.70
53962;DHT22;39868;53.398;6.564;2023-06-05T07:35:55;16.90;69.70
53962;DHT22;39868;53.398;6.564;2023-06-05T07:38:22;16.90;69.60
53962;DHT22;39868;53.398;6.564;2023-06-05T07:40:50;17.00;69.50
53962;DHT22;39868;53.398;6.564;2023-06-05T07:43:17;17.00;69.40
53962;DHT22;39868;53.398;6.564;2023-06-05T07:45:45;17.00;69.30
53962;DHT22;39868;53.398;6.564;2023-06-05T07:48:12;17.10;69.60
53962;DHT22;39868;53.398;6.564;2023-06-05T07:50:40;17.00;69.40
53962;DHT22;39868;53.398;6.564;2023-06-05T07:53:07;17.10;69.30
53962;DHT22;39868;53.398;6.564;2023-06-05T07:55:35;17.20;69.30
53962;DHT22;39868;53.398;6.564;2023-06-05T07:58:02;17.20;69.20
53962;DHT22;39868;53.398;6.564;2023-06-05T08:00:29;17.20;68.90
53962;DHT22;39868;53.398;6.564;2023-06-05T08:02:57;17.20;68.60
53962;DHT22;39868;53.398;6.564;2023-06-05T08:05:25;17.30;68.90
53962;DHT22;39868;53.398;6.564;2023-06-05T08:07:53;17.30;68.70
53962;DHT22;39868;53.398;6.564;2023-06-05T08:10:20;17.30;68.80
53962;DHT22;39868;53.398;6.564;2023-06-05T08:12:48;17.30;68.60
53962;DHT22;39868;53.398;6.564;2023-06-05T08:15:15;17.40;68.50
53962;DHT22;39868;53.398;6.564;2023-06-05T08:17:42;17.40;68.80
53962;DHT22;39868;53.398;6.564;2023-06-05T08:20:10;17.40;69.00
53962;DHT22;39868;53.398;6.564;2023-06-05T08:22:38;17.50;69.00
53962;DHT22;39868;53.398;6.564;2023-06-05T08:25:07;17.50;68.60
53962;DHT22;39868;53.398;6.564;2023-06-05T08:27:35;17.60;68.60
53962;DHT22;39868;53.398;6.564;2023-06-05T08:30:03;17.60;68.60
53962;DHT22;39868;53.398;6.564;2023-06-05T08:32:30;17.80;68.60
53962;DHT22;39868;53.398;6.564;2023-06-05T08:34:58;17.80;68.20
53962;DHT22;39868;53.398;6.564;2023-06-05T08:37:25;17.90;68.20
53962;DHT22;39868;53.398;6.564;2023-06-05T08:39:55;18.00;68.20
53962;DHT22;39868;53.398;6.564;2023-06-05T08:42:26;18.10;68.20
53962;DHT22;39868;53.398;6.564;2023-06-05T08:44:55;18.10;67.60
53962;DHT22;39868;53.398;6.564;2023-06-05T08:47:29;18.20;67.30
53962;DHT22;39868;53.398;6.564;2023-06-05T08:50:03;18.20;67.40
53962;DHT22;39868;53.398;6.564;2023-06-05T08:52:38;18.20;67.30
53962;DHT22;39868;53.398;6.564;2023-06-05T08:55:07;18.20;67.10
53962;DHT22;39868;53.398;6.564;2023-06-05T08:57:35;18.20;67.20
53962;DHT22;39868;53.398;6.564;2023-06-05T09:00:06;18.20;67.00
53962;DHT22;39868;53.398;6.564;2023-06-05T09:02:38;18.20;67.30
53962;DHT22;39868;53.398;6.564;2023-06-05T09:05:07;18.20;67.00
53962;DHT22;39868;53.398;6.564;2023-06-05T09:07:35;18.20;67.10
53962;DHT22;39868;53.398;6.564;2023-06-05T09:10:07;18.20;66.80
53962;DHT22;39868;53.398;6.564;2023-06-05T09:12:54;18.20;66.40
53962;DHT22;39868;53.398;6.564;2023-06-05T09:15:27;18.20;66.50
53962;DHT22;39868;53.398;6.564;2023-06-05T09:18:10;18.10;66.60
53962;DHT22;39868;53.398;6.564;2023-06-05T09:20:45;18.10;66.50
53962;DHT22;39868;53.398;6.564;2023-06-05T09:23:28;18.10;66.40
53962;DHT22;39868;53.398;6.564;2023-06-05T09:25:58;18.10;66.60
53962;DHT22;39868;53.398;6.564;2023-06-05T09:28:26;18.10;66.60
53962;DHT22;39868;53.398;6.564;2023-06-05T09:30:55;18.10;67.00
53962;DHT22;39868;53.398;6.564;2023-06-05T09:33:28;18.10;66.40
53962;DHT22;39868;53.398;6.564;2023-06-05T09:36:05;18.20;66.90
53962;DHT22;39868;53.398;6.564;2023-06-05T09:38:34;18.20;66.60
53962;DHT22;39868;53.398;6.564;2023-06-05T09:41:10;18.30;67.00
53962;DHT22;39868;53.398;6.564;2023-06-05T09:43:38;18.40;66.40
53962;DHT22;39868;53.398;6.564;2023-06-05T09:46:12;18.40;66.60
53962;DHT22;39868;53.398;6.564;2023-06-05T09:48:41;18.40;66.60
53962;DHT22;39868;53.398;6.564;2023-06-05T09:51:18;18.40;66.30
53962;DHT22;39868;53.398;6.564;2023-06-05T09:53:50;18.50;66.60
53962;DHT22;39868;53.398;6.564;2023-06-05T09:56:21;18.50;66.50
53962;DHT22;39868;53.398;6.564;2023-06-05T09:58:52;18.50;66.10
53962;DHT22;39868;53.398;6.564;2023-06-05T10:01:22;18.60;66.20
53962;DHT22;39868;53.398;6.564;2023-06-05T10:03:57;18.60;66.50
53962;DHT22;39868;53.398;6.564;2023-06-05T10:06:28;18.70;66.00
53962;DHT22;39868;53.398;6.564;2023-06-05T10:08:56;18.70;65.80
53962;DHT22;39868;53.398;6.564;2023-06-05T10:11:25;18.70;65.60
53962;DHT22;39868;53.398;6.564;2023-06-05T10:13:56;18.80;66.00
53962;DHT22;39868;53.398;6.564;2023-06-05T10:16:27;18.80;65.50
53962;DHT22;39868;53.398;6.564;2023-06-05T10:18:56;18.90;66.10
53962;DHT22;39868;53.398;6.564;2023-06-05T10:21:24;18.90;65.80
53962;DHT22;39868;53.398;6.564;2023-06-05T10:24:01;18.90;65.40
53962;DHT22;39868;53.398;6.564;2023-06-05T10:38:22;18.90;65.50
53962;DHT22;39868;53.398;6.564;2023-06-05T10:41:01;18.90;66.00
53962;DHT22;39868;53.398;6.564;2023-06-05T10:43:46;19.00;66.00
53962;DHT22;39868;53.398;6.564;2023-06-05T10:49:05;19.00;65.70
53962;DHT22;39868;53.398;6.564;2023-06-05T10:51:55;19.00;65.20
53962;DHT22;39868;53.398;6.564;2023-06-05T10:56:58;19.10;64.90
53962;DHT22;39868;53.398;6.564;2023-06-05T10:59:38;19.10;64.90
53962;DHT22;39868;53.398;6.564;2023-06-05T11:07:26;19.10;65.10
53962;DHT22;39868;53.398;6.564;2023-06-05T11:15:10;19.10;64.30
53962;DHT22;39868;53.398;6.564;2023-06-05T11:17:43;19.10;64.40
53962;DHT22;39868;53.398;6.564;2023-06-05T11:27:54;19.10;65.00
53962;DHT22;39868;53.398;6.564;2023-06-05T11:30:24;19.10;64.60
53962;DHT22;39868;53.398;6.564;2023-06-05T11:33:13;19.10;64.60
53962;DHT22;39868;53.398;6.564;2023-06-05T11:35:44;19.00;65.00
53962;DHT22;39868;53.398;6.564;2023-06-05T11:40:43;19.10;65.10
53962;DHT22;39868;53.398;6.564;2023-06-05T11:43:12;19.10;65.30
53962;DHT22;39868;53.398;6.564;2023-06-05T11:45:41;19.10;65.00
53962;DHT22;39868;53.398;6.564;2023-06-05T11:48:12;19.20;64.90
53962;DHT22;39868;53.398;6.564;2023-06-05T11:50:55;19.20;64.60
53962;DHT22;39868;53.398;6.564;2023-06-05T11:53:23;19.20;64.70
53962;DHT22;39868;53.398;6.564;2023-06-05T11:55:52;19.20;64.90
53962;DHT22;39868;53.398;6.564;2023-06-05T11:58:29;19.20;64.20
53962;DHT22;39868;53.398;6.564;2023-06-05T12:01:15;19.30;64.50
53962;DHT22;39868;53.398;6.564;2023-06-05T12:04:04;19.30;64.30
53962;DHT22;39868;53.398;6.564;2023-06-05T12:06:39;19.30;64.60
53962;DHT22;39868;53.398;6.564;2023-06-05T12:09:09;19.30;64.30
53962;DHT22;39868;53.398;6.564;2023-06-05T12:11:38;19.40;64.80
53962;DHT22;39868;53.398;6.564;2023-06-05T12:14:05;19.30;64.60
53962;DHT22;39868;53.398;6.564;2023-06-05T12:19:11;19.30;64.10
53962;DHT22;39868;53.398;6.564;2023-06-05T12:21:43;19.30;64.20
53962;DHT22;39868;53.398;6.564;2023-06-05T12:24:11;19.30;64.00
53962;DHT22;39868;53.398;6.564;2023-06-05T12:26:58;19.30;63.30
53962;DHT22;39868;53.398;6.564;2023-06-05T12:29:34;19.30;64.00
53962;DHT22;39868;53.398;6.564;2023-06-05T12:32:02;19.30;64.10
53962;DHT22;39868;53.398;6.564;2023-06-05T12:34:46;19.30;64.30
53962;DHT22;39868;53.398;6.564;2023-06-05T12:37:34;19.30;64.20
53962;DHT22;39868;53.398;6.564;2023-06-05T12:40:05;19.30;64.40
53962;DHT22;39868;53.398;6.564;2023-06-05T12:42:39;19.30;63.80
53962;DHT22;39868;53.398;6.564;2023-06-05T12:45:08;19.30;63.40
53962;DHT22;39868;53.398;6.564;2023-06-05T12:47:38;19.40;63.90
53962;DHT22;39868;53.398;6.564;2023-06-05T12:50:07;19.40;63.30
53962;DHT22;39868;53.398;6.564;2023-06-05T12:52:42;19.40;63.60
53962;DHT22;39868;53.398;6.564;2023-06-05T12:55:10;19.40;63.60
53962;DHT22;39868;53.398;6.564;2023-06-05T12:57:38;19.40;63.70
53962;DHT22;39868;53.398;6.564;2023-06-05T13:00:06;19.40;63.30
53962;DHT22;39868;53.398;6.564;2023-06-05T13:02:44;19.40;63.40
53962;DHT22;39868;53.398;6.564;2023-06-05T13:05:16;19.40;63.40
53962;DHT22;39868;53.398;6.564;2023-06-05T13:07:44;19.40;63.90
53962;DHT22;39868;53.398;6.564;2023-06-05T13:10:12;19.40;63.70
53962;DHT22;39868;53.398;6.564;2023-06-05T13:12:39;19.40;63.10
53962;DHT22;39868;53.398;6.564;2023-06-05T13:15:07;19.40;63.10
53962;DHT22;39868;53.398;6.564;2023-06-05T13:17:36;19.40;63.40
53962;DHT22;39868;53.398;6.564;2023-06-05T13:20:06;19.40;63.60
53962;DHT22;39868;53.398;6.564;2023-06-05T13:22:37;19.40;63.10
53962;DHT22;39868;53.398;6.564;2023-06-05T13:25:06;19.40;63.10
53962;DHT22;39868;53.398;6.564;2023-06-05T13:27:35;19.40;63.00
53962;DHT22;39868;53.398;6.564;2023-06-05T13:30:03;19.40;63.00
53962;DHT22;39868;53.398;6.564;2023-06-05T13:32:32;19.40;63.10
53962;DHT22;39868;53.398;6.564;2023-06-05T13:35:01;19.40;63.20
53962;DHT22;39868;53.398;6.564;2023-06-05T13:37:28;19.50;62.90
53962;DHT22;39868;53.398;6.564;2023-06-05T13:39:56;19.50;63.00
53962;DHT22;39868;53.398;6.564;2023-06-05T13:42:23;19.50;63.30
53962;DHT22;39868;53.398;6.564;2023-06-05T13:44:51;19.40;63.50
53962;DHT22;39868;53.398;6.564;2023-06-05T13:47:18;19.40;63.00
53962;DHT22;39868;53.398;6.564;2023-06-05T13:49:46;19.40;63.50
53962;DHT22;39868;53.398;6.564;2023-06-05T13:52:13;19.40;63.40
53962;DHT22;39868;53.398;6.564;2023-06-05T13:54:41;19.40;63.70
53962;DHT22;39868;53.398;6.564;2023-06-05T13:57:10;19.40;63.70
53962;DHT22;39868;53.398;6.564;2023-06-05T13:59:39;19.40;63.70
53962;DHT22;39868;53.398;6.564;2023-06-05T14:02:06;19.40;63.40
53962;DHT22;39868;53.398;6.564;2023-06-05T14:04:35;19.40;63.70
53962;DHT22;39868;53.398;6.564;2023-06-05T14:07:03;19.40;63.90
53962;DHT22;39868;53.398;6.564;2023-06-05T14:09:30;19.50;63.70
53962;DHT22;39868;53.398;6.564;2023-06-05T14:11:59;19.50;63.90
53962;DHT22;39868;53.398;6.564;2023-06-05T14:14:26;19.60;63.50
53962;DHT22;39868;53.398;6.564;2023-06-05T14:16:53;19.60;63.60
53962;DHT22;39868;53.398;6.564;2023-06-05T14:19:21;19.60;63.80
53962;DHT22;39868;53.398;6.564;2023-06-05T14:21:48;19.70;63.80
53962;DHT22;39868;53.398;6.564;2023-06-05T14:24:16;19.70;63.20
53962;DHT22;39868;53.398;6.564;2023-06-05T14:26:46;19.70;63.10
53962;DHT22;39868;53.398;6.564;2023-06-05T14:29:14;19.80;63.20
53962;DHT22;39868;53.398;6.564;2023-06-05T14:31:41;19.80;63.40
53962;DHT22;39868;53.398;6.564;2023-06-05T14:34:09;19.80;62.90
53962;DHT22;39868;53.398;6.564;2023-06-05T14:36:36;19.70;63.00
53962;DHT22;39868;53.398;6.564;2023-06-05T14:39:04;19.70;63.30
53962;DHT22;39868;53.398;6.564;2023-06-05T14:41:31;19.70;63.10
53962;DHT22;39868;53.398;6.564;2023-06-05T14:43:59;19.70;62.90
53962;DHT22;39868;53.398;6.564;2023-06-05T14:46:47;19.70;62.70
53962;DHT22;39868;53.398;6.564;2023-06-05T14:49:14;19.70;63.70
53962;DHT22;39868;53.398;6.564;2023-06-05T14:51:43;19.70;63.10
53962;DHT22;39868;53.398;6.564;2023-06-05T14:54:11;19.70;63.00
53962;DHT22;39868;53.398;6.564;2023-06-05T14:56:39;19.70;62.80
53962;DHT22;39868;53.398;6.564;2023-06-05T14:59:06;19.70;63.00
53962;DHT22;39868;53.398;6.564;2023-06-05T15:01:52;19.60;63.10
53962;DHT22;39868;53.398;6.564;2023-06-05T15:04:19;19.60;63.00
53962;DHT22;39868;53.398;6.564;2023-06-05T15:06:47;19.60;63.00
53962;DHT22;39868;53.398;6.564;2023-06-05T15:09:19;19.60;63.00
53962;DHT22;39868;53.398;6.564;2023-06-05T15:11:46;19.60;63.30
53962;DHT22;39868;53.398;6.564;2023-06-05T15:14:13;19.50;63.40
53962;DHT22;39868;53.398;6.564;2023-06-05T15:16:41;19.60;63.20
53962;DHT22;39868;53.398;6.564;2023-06-05T15:19:09;19.60;62.70
53962;DHT22;39868;53.398;6.564;2023-06-05T15:21:37;19.60;63.20
53962;DHT22;39868;53.398;6.564;2023-06-05T15:24:05;19.60;63.40
53962;DHT22;39868;53.398;6.564;2023-06-05T15:26:33;19.60;63.00
53962;DHT22;39868;53.398;6.564;2023-06-05T15:29:00;19.70;63.20
53962;DHT22;39868;53.398;6.564;2023-06-05T15:31:28;19.60;63.30
53962;DHT22;39868;53.398;6.564;2023-06-05T15:33:55;19.70;62.70
53962;DHT22;39868;53.398;6.564;2023-06-05T15:36:23;19.70;62.90
53962;DHT22;39868;53.398;6.564;2023-06-05T15:38:50;19.70;63.10
53962;DHT22;39868;53.398;6.564;2023-06-05T15:41:18;19.80;63.10
53962;DHT22;39868;53.398;6.564;2023-06-05T15:43:45;19.80;62.60
53962;DHT22;39868;53.398;6.564;2023-06-05T15:46:12;19.80;62.50
53962;DHT22;39868;53.398;6.564;2023-06-05T15:48:40;19.80;62.60
53962;DHT22;39868;53.398;6.564;2023-06-05T15:51:07;19.80;62.50
53962;DHT22;39868;53.398;6.564;2023-06-05T15:53:36;19.80;62.50
53962;DHT22;39868;53.398;6.564;2023-06-05T15:56:20;19.80;62.20
53962;DHT22;39868;53.398;6.564;2023-06-05T15:58:48;19.80;62.00
53962;DHT22;39868;53.398;6.564;2023-06-05T16:01:15;19.80;62.10
53962;DHT22;39868;53.398;6.564;2023-06-05T16:03:43;19.80;62.60
53962;DHT22;39868;53.398;6.564;2023-06-05T16:06:11;19.80;62.20
53962;DHT22;39868;53.398;6.564;2023-06-05T16:08:41;19.80;62.10
53962;DHT22;39868;53.398;6.564;2023-06-05T16:11:08;19.80;62.10
53962;DHT22;39868;53.398;6.564;2023-06-05T16:13:37;19.80;62.50
53962;DHT22;39868;53.398;6.564;2023-06-05T16:16:05;19.80;62.10
53962;DHT22;39868;53.398;6.564;2023-06-05T16:18:32;19.80;62.00
53962;DHT22;39868;53.398;6.564;2023-06-05T16:21:00;19.80;62.30
53962;DHT22;39868;53.398;6.564;2023-06-05T16:23:27;19.70;62.10
53962;DHT22;39868;53.398;6.564;2023-06-05T16:25:55;19.70;62.20